Current | Forecast
Updated: 10:30 AM CET on February 20, 2019
Observed at Paris / Charles De Gaulle, France
Temperature 39°F
Humidity 100%
Dew Point 39°F
Wind Variable at 2 mph
Pressure 30.24 in (Steady)
Conditions Mostly Cloudy
Visibility 0.7 miles
UV 1 out of 16
Clouds (FEW) : 100 ft
Mostly Cloudy (BKN) : 200 ft
Mostly Cloudy (BKN) : 3000 ft
Yesterday's Maximum 54°F
Yesterday's Minimum 41°F approx.
Yesterday's Heating Degree Days 18 approx.
Sunrise7:47 AM CET
Sunset6:15 PM CET
Moon Rise7:27 PM CET
Moon Set8:31 AM CET
Moon PhaseMoon Phase
Full Moon
Raw METARMETAR LFPG 200930Z VRB02KT 1200 R27L/P2000 R09R/P2000 R26R/1500U R08L/1600D R26L/P2000 R08R/1500U R27R/P2000 R09L/P2000 BR FEW001 BKN002 BKN030 04/04 Q1024 NOSIG



Units: English | Metric

Find the Weather for any City, State or Zipcode, or Country:

U.S. State List | Severe Weather | Tropical Storms | Ski Conditions
United States | Canada | Central America | South America | Asia | Europe | Australia | Africa | Islands

Weather Underground

© Copyright 2019
The Weather Company, LLC